sensor_id;sensor_type;location;lat;lon;timestamp;P1;durP1;ratioP1;P2;durP2;ratioP2
58808;SDS011;44579;51.672;7.834;2022-11-15T00:01:13;5.18;;;3.30;;
58808;SDS011;44579;51.672;7.834;2022-11-15T00:04:01;7.65;;;4.07;;
58808;SDS011;44579;51.672;7.834;2022-11-15T00:06:48;5.90;;;3.63;;
58808;SDS011;44579;51.672;7.834;2022-11-15T00:09:33;5.05;;;2.97;;
58808;SDS011;44579;51.672;7.834;2022-11-15T00:12:19;6.53;;;3.25;;
58808;SDS011;44579;51.672;7.834;2022-11-15T00:15:05;5.88;;;3.15;;
58808;SDS011;44579;51.672;7.834;2022-11-15T00:17:51;7.53;;;3.25;;
58808;SDS011;44579;51.672;7.834;2022-11-15T00:20:37;6.68;;;3.45;;
58808;SDS011;44579;51.672;7.834;2022-11-15T00:23:23;5.75;;;3.05;;
58808;SDS011;44579;51.672;7.834;2022-11-15T00:26:12;9.45;;;3.25;;
58808;SDS011;44579;51.672;7.834;2022-11-15T00:28:58;5.53;;;3.35;;
58808;SDS011;44579;51.672;7.834;2022-11-15T00:31:44;7.53;;;3.35;;
58808;SDS011;44579;51.672;7.834;2022-11-15T00:34:29;4.75;;;3.17;;
58808;SDS011;44579;51.672;7.834;2022-11-15T00:37:15;6.20;;;3.83;;
58808;SDS011;44579;51.672;7.834;2022-11-15T00:40:01;9.70;;;3.95;;
58808;SDS011;44579;51.672;7.834;2022-11-15T00:42:46;6.32;;;3.72;;
58808;SDS011;44579;51.672;7.834;2022-11-15T00:45:32;6.40;;;3.85;;
58808;SDS011;44579;51.672;7.834;2022-11-15T00:48:18;7.22;;;3.72;;
58808;SDS011;44579;51.672;7.834;2022-11-15T00:51:03;7.18;;;4.53;;
58808;SDS011;44579;51.672;7.834;2022-11-15T00:53:49;6.82;;;3.53;;
58808;SDS011;44579;51.672;7.834;2022-11-15T00:56:35;7.15;;;4.45;;
58808;SDS011;44579;51.672;7.834;2022-11-15T00:59:21;9.05;;;3.97;;
58808;SDS011;44579;51.672;7.834;2022-11-15T01:02:07;12.98;;;4.80;;
58808;SDS011;44579;51.672;7.834;2022-11-15T01:04:53;8.65;;;3.92;;
58808;SDS011;44579;51.672;7.834;2022-11-15T01:07:38;8.50;;;3.97;;
58808;SDS011;44579;51.672;7.834;2022-11-15T01:10:24;9.00;;;5.32;;
58808;SDS011;44579;51.672;7.834;2022-11-15T01:13:13;6.47;;;4.18;;
58808;SDS011;44579;51.672;7.834;2022-11-15T01:16:04;4.97;;;3.42;;
58808;SDS011;44579;51.672;7.834;2022-11-15T01:18:56;6.05;;;3.90;;
58808;SDS011;44579;51.672;7.834;2022-11-15T01:21:41;6.63;;;3.72;;
58808;SDS011;44579;51.672;7.834;2022-11-15T01:24:28;10.77;;;4.60;;
58808;SDS011;44579;51.672;7.834;2022-11-15T01:27:14;5.07;;;3.40;;
58808;SDS011;44579;51.672;7.834;2022-11-15T01:29:59;6.38;;;3.65;;
58808;SDS011;44579;51.672;7.834;2022-11-15T01:32:45;9.65;;;4.13;;
58808;SDS011;44579;51.672;7.834;2022-11-15T01:35:31;7.07;;;4.00;;
58808;SDS011;44579;51.672;7.834;2022-11-15T01:38:17;6.03;;;3.75;;
58808;SDS011;44579;51.672;7.834;2022-11-15T01:41:02;4.53;;;3.50;;
58808;SDS011;44579;51.672;7.834;2022-11-15T01:43:51;6.78;;;4.22;;
58808;SDS011;44579;51.672;7.834;2022-11-15T01:46:38;7.50;;;4.20;;
58808;SDS011;44579;51.672;7.834;2022-11-15T01:49:31;5.93;;;3.55;;
58808;SDS011;44579;51.672;7.834;2022-11-15T01:52:20;10.98;;;4.32;;
58808;SDS011;44579;51.672;7.834;2022-11-15T01:55:13;6.65;;;3.60;;
58808;SDS011;44579;51.672;7.834;2022-11-15T01:58:03;9.75;;;4.43;;
58808;SDS011;44579;51.672;7.834;2022-11-15T02:00:50;6.90;;;3.85;;
58808;SDS011;44579;51.672;7.834;2022-11-15T02:03:38;7.53;;;4.23;;
58808;SDS011;44579;51.672;7.834;2022-11-15T02:06:31;7.10;;;3.95;;
58808;SDS011;44579;51.672;7.834;2022-11-15T02:09:17;8.60;;;4.20;;
58808;SDS011;44579;51.672;7.834;2022-11-15T02:12:02;13.70;;;4.88;;
58808;SDS011;44579;51.672;7.834;2022-11-15T02:14:50;8.15;;;4.05;;
58808;SDS011;44579;51.672;7.834;2022-11-15T02:21:17;4.50;;;3.35;;
58808;SDS011;44579;51.672;7.834;2022-11-15T02:30:42;4.53;;;2.83;;
58808;SDS011;44579;51.672;7.834;2022-11-15T02:37:15;6.90;;;3.55;;
58808;SDS011;44579;51.672;7.834;2022-11-15T02:43:25;9.88;;;4.47;;
58808;SDS011;44579;51.672;7.834;2022-11-15T02:46:40;5.72;;;3.45;;
58808;SDS011;44579;51.672;7.834;2022-11-15T02:49:52;5.30;;;3.75;;
58808;SDS011;44579;51.672;7.834;2022-11-15T02:52:40;7.38;;;3.97;;
58808;SDS011;44579;51.672;7.834;2022-11-15T02:55:30;19.08;;;5.32;;
58808;SDS011;44579;51.672;7.834;2022-11-15T03:10:26;6.22;;;4.05;;
58808;SDS011;44579;51.672;7.834;2022-11-15T03:13:37;13.50;;;3.70;;
58808;SDS011;44579;51.672;7.834;2022-11-15T03:16:45;11.52;;;4.40;;
58808;SDS011;44579;51.672;7.834;2022-11-15T03:19:57;11.30;;;4.38;;
58808;SDS011;44579;51.672;7.834;2022-11-15T03:22:46;6.90;;;4.15;;
58808;SDS011;44579;51.672;7.834;2022-11-15T03:25:33;7.57;;;4.68;;
58808;SDS011;44579;51.672;7.834;2022-11-15T03:28:22;9.75;;;5.15;;
58808;SDS011;44579;51.672;7.834;2022-11-15T03:31:13;7.93;;;5.03;;
58808;SDS011;44579;51.672;7.834;2022-11-15T03:37:32;8.05;;;5.00;;
58808;SDS011;44579;51.672;7.834;2022-11-15T03:40:45;19.48;;;5.03;;
58808;SDS011;44579;51.672;7.834;2022-11-15T03:46:47;15.57;;;6.00;;
58808;SDS011;44579;51.672;7.834;2022-11-15T03:50:02;8.77;;;5.22;;
58808;SDS011;44579;51.672;7.834;2022-11-15T03:52:53;13.48;;;6.00;;
58808;SDS011;44579;51.672;7.834;2022-11-15T03:55:39;10.00;;;5.43;;
58808;SDS011;44579;51.672;7.834;2022-11-15T03:58:25;14.43;;;6.70;;
58808;SDS011;44579;51.672;7.834;2022-11-15T04:01:11;10.80;;;5.72;;
58808;SDS011;44579;51.672;7.834;2022-11-15T04:03:56;16.30;;;6.60;;
58808;SDS011;44579;51.672;7.834;2022-11-15T04:06:41;22.92;;;7.57;;
58808;SDS011;44579;51.672;7.834;2022-11-15T04:09:27;15.57;;;5.80;;
58808;SDS011;44579;51.672;7.834;2022-11-15T04:12:12;18.38;;;6.32;;
58808;SDS011;44579;51.672;7.834;2022-11-15T04:15:17;18.40;;;6.57;;
58808;SDS011;44579;51.672;7.834;2022-11-15T04:18:04;19.27;;;6.45;;
58808;SDS011;44579;51.672;7.834;2022-11-15T04:20:49;14.45;;;6.72;;
58808;SDS011;44579;51.672;7.834;2022-11-15T04:23:54;21.38;;;5.90;;
58808;SDS011;44579;51.672;7.834;2022-11-15T04:26:39;11.35;;;6.22;;
58808;SDS011;44579;51.672;7.834;2022-11-15T04:29:27;12.80;;;6.13;;
58808;SDS011;44579;51.672;7.834;2022-11-15T04:32:19;18.83;;;5.35;;
58808;SDS011;44579;51.672;7.834;2022-11-15T04:35:05;8.63;;;4.88;;
58808;SDS011;44579;51.672;7.834;2022-11-15T04:37:51;17.23;;;5.88;;
58808;SDS011;44579;51.672;7.834;2022-11-15T04:40:37;16.63;;;6.35;;
58808;SDS011;44579;51.672;7.834;2022-11-15T04:43:24;13.70;;;5.63;;
58808;SDS011;44579;51.672;7.834;2022-11-15T04:46:10;9.02;;;4.70;;
58808;SDS011;44579;51.672;7.834;2022-11-15T04:48:56;9.35;;;4.78;;
58808;SDS011;44579;51.672;7.834;2022-11-15T04:51:43;14.80;;;5.70;;
58808;SDS011;44579;51.672;7.834;2022-11-15T04:54:29;19.63;;;4.47;;
58808;SDS011;44579;51.672;7.834;2022-11-15T04:57:14;10.20;;;5.03;;
58808;SDS011;44579;51.672;7.834;2022-11-15T05:00:00;14.75;;;5.47;;
58808;SDS011;44579;51.672;7.834;2022-11-15T05:02:47;15.68;;;5.78;;
58808;SDS011;44579;51.672;7.834;2022-11-15T05:05:57;13.85;;;5.63;;
58808;SDS011;44579;51.672;7.834;2022-11-15T05:08:45;12.77;;;5.93;;
58808;SDS011;44579;51.672;7.834;2022-11-15T05:11:30;10.43;;;5.55;;
58808;SDS011;44579;51.672;7.834;2022-11-15T05:14:16;13.93;;;5.43;;
58808;SDS011;44579;51.672;7.834;2022-11-15T05:17:02;16.08;;;6.93;;
58808;SDS011;44579;51.672;7.834;2022-11-15T05:19:47;11.57;;;5.45;;
58808;SDS011;44579;51.672;7.834;2022-11-15T05:22:33;12.30;;;5.53;;
58808;SDS011;44579;51.672;7.834;2022-11-15T05:25:19;17.30;;;7.53;;
58808;SDS011;44579;51.672;7.834;2022-11-15T05:28:05;9.43;;;4.70;;
58808;SDS011;44579;51.672;7.834;2022-11-15T05:30:59;20.38;;;5.78;;
58808;SDS011;44579;51.672;7.834;2022-11-15T05:33:53;16.83;;;5.80;;
58808;SDS011;44579;51.672;7.834;2022-11-15T05:36:43;13.43;;;5.30;;
58808;SDS011;44579;51.672;7.834;2022-11-15T05:39:30;17.90;;;6.00;;
58808;SDS011;44579;51.672;7.834;2022-11-15T05:42:16;11.32;;;5.13;;
58808;SDS011;44579;51.672;7.834;2022-11-15T05:45:02;27.65;;;6.75;;
58808;SDS011;44579;51.672;7.834;2022-11-15T05:47:50;20.38;;;7.00;;
58808;SDS011;44579;51.672;7.834;2022-11-15T05:50:38;11.85;;;5.90;;
58808;SDS011;44579;51.672;7.834;2022-11-15T05:53:28;12.73;;;6.40;;
58808;SDS011;44579;51.672;7.834;2022-11-15T05:56:15;15.98;;;5.97;;
58808;SDS011;44579;51.672;7.834;2022-11-15T05:59:01;14.15;;;6.18;;
58808;SDS011;44579;51.672;7.834;2022-11-15T06:01:48;15.70;;;6.63;;
58808;SDS011;44579;51.672;7.834;2022-11-15T06:04:33;13.55;;;6.18;;
58808;SDS011;44579;51.672;7.834;2022-11-15T06:07:19;17.67;;;5.82;;
58808;SDS011;44579;51.672;7.834;2022-11-15T06:10:05;10.30;;;3.65;;
58808;SDS011;44579;51.672;7.834;2022-11-15T06:12:58;16.88;;;6.57;;
58808;SDS011;44579;51.672;7.834;2022-11-15T06:15:44;13.70;;;6.22;;
58808;SDS011;44579;51.672;7.834;2022-11-15T06:18:31;17.33;;;6.70;;
58808;SDS011;44579;51.672;7.834;2022-11-15T06:21:18;12.07;;;5.63;;
58808;SDS011;44579;51.672;7.834;2022-11-15T06:24:05;10.90;;;5.00;;
58808;SDS011;44579;51.672;7.834;2022-11-15T06:26:51;11.60;;;5.13;;
58808;SDS011;44579;51.672;7.834;2022-11-15T06:29:39;22.55;;;5.95;;
58808;SDS011;44579;51.672;7.834;2022-11-15T06:32:25;13.88;;;5.90;;
58808;SDS011;44579;51.672;7.834;2022-11-15T06:35:10;9.13;;;4.55;;
58808;SDS011;44579;51.672;7.834;2022-11-15T06:37:57;10.68;;;4.60;;
58808;SDS011;44579;51.672;7.834;2022-11-15T06:40:51;10.52;;;5.10;;
58808;SDS011;44579;51.672;7.834;2022-11-15T06:43:37;8.25;;;4.45;;
58808;SDS011;44579;51.672;7.834;2022-11-15T06:46:24;12.95;;;5.65;;
58808;SDS011;44579;51.672;7.834;2022-11-15T06:49:09;13.80;;;5.43;;
58808;SDS011;44579;51.672;7.834;2022-11-15T06:51:55;10.27;;;4.45;;
58808;SDS011;44579;51.672;7.834;2022-11-15T06:54:40;9.32;;;4.40;;
58808;SDS011;44579;51.672;7.834;2022-11-15T06:57:26;12.07;;;5.00;;
58808;SDS011;44579;51.672;7.834;2022-11-15T07:00:13;10.93;;;4.97;;
58808;SDS011;44579;51.672;7.834;2022-11-15T07:03:00;11.48;;;4.70;;
58808;SDS011;44579;51.672;7.834;2022-11-15T07:05:55;11.25;;;4.32;;
58808;SDS011;44579;51.672;7.834;2022-11-15T07:08:51;9.30;;;4.50;;
58808;SDS011;44579;51.672;7.834;2022-11-15T07:11:37;11.75;;;6.13;;
58808;SDS011;44579;51.672;7.834;2022-11-15T07:14:24;10.85;;;4.75;;
58808;SDS011;44579;51.672;7.834;2022-11-15T07:17:10;13.32;;;3.92;;
58808;SDS011;44579;51.672;7.834;2022-11-15T07:19:59;7.20;;;3.53;;
58808;SDS011;44579;51.672;7.834;2022-11-15T07:22:44;8.90;;;4.00;;
58808;SDS011;44579;51.672;7.834;2022-11-15T07:25:31;7.93;;;4.20;;
58808;SDS011;44579;51.672;7.834;2022-11-15T07:28:18;6.18;;;3.92;;
58808;SDS011;44579;51.672;7.834;2022-11-15T07:31:04;3.42;;;2.47;;
58808;SDS011;44579;51.672;7.834;2022-11-15T07:33:51;6.93;;;3.38;;
58808;SDS011;44579;51.672;7.834;2022-11-15T07:36:38;4.70;;;2.25;;
58808;SDS011;44579;51.672;7.834;2022-11-15T07:39:23;6.63;;;2.80;;
58808;SDS011;44579;51.672;7.834;2022-11-15T07:42:09;5.07;;;3.15;;
58808;SDS011;44579;51.672;7.834;2022-11-15T07:45:14;6.05;;;2.85;;
58808;SDS011;44579;51.672;7.834;2022-11-15T07:47:59;7.30;;;2.65;;
58808;SDS011;44579;51.672;7.834;2022-11-15T07:50:45;9.23;;;3.08;;
58808;SDS011;44579;51.672;7.834;2022-11-15T07:53:31;8.90;;;2.78;;
58808;SDS011;44579;51.672;7.834;2022-11-15T07:56:18;5.40;;;2.42;;
58808;SDS011;44579;51.672;7.834;2022-11-15T07:59:05;4.55;;;2.35;;
58808;SDS011;44579;51.672;7.834;2022-11-15T08:01:51;7.15;;;2.25;;
58808;SDS011;44579;51.672;7.834;2022-11-15T08:04:36;3.83;;;2.03;;
58808;SDS011;44579;51.672;7.834;2022-11-15T08:07:22;3.95;;;2.13;;
58808;SDS011;44579;51.672;7.834;2022-11-15T08:10:08;5.60;;;1.75;;
58808;SDS011;44579;51.672;7.834;2022-11-15T08:13:12;7.07;;;2.03;;
58808;SDS011;44579;51.672;7.834;2022-11-15T08:16:01;5.57;;;2.53;;
58808;SDS011;44579;51.672;7.834;2022-11-15T08:18:50;4.82;;;2.00;;
58808;SDS011;44579;51.672;7.834;2022-11-15T08:21:36;8.57;;;2.20;;
58808;SDS011;44579;51.672;7.834;2022-11-15T08:24:22;1.73;;;1.38;;
58808;SDS011;44579;51.672;7.834;2022-11-15T08:27:07;6.10;;;2.00;;
58808;SDS011;44579;51.672;7.834;2022-11-15T08:30:00;3.03;;;1.77;;
58808;SDS011;44579;51.672;7.834;2022-11-15T08:32:46;8.80;;;2.40;;
58808;SDS011;44579;51.672;7.834;2022-11-15T08:35:33;3.10;;;1.02;;
58808;SDS011;44579;51.672;7.834;2022-11-15T08:38:18;7.53;;;1.63;;
58808;SDS011;44579;51.672;7.834;2022-11-15T08:41:04;2.40;;;2.10;;
58808;SDS011;44579;51.672;7.834;2022-11-15T08:43:51;4.97;;;1.95;;
58808;SDS011;44579;51.672;7.834;2022-11-15T08:46:36;4.30;;;1.92;;
58808;SDS011;44579;51.672;7.834;2022-11-15T08:49:22;3.45;;;1.50;;
58808;SDS011;44579;51.672;7.834;2022-11-15T08:52:08;4.47;;;1.83;;
58808;SDS011;44579;51.672;7.834;2022-11-15T08:54:54;4.25;;;1.63;;
58808;SDS011;44579;51.672;7.834;2022-11-15T08:57:39;11.02;;;1.90;;
58808;SDS011;44579;51.672;7.834;2022-11-15T09:00:24;2.60;;;1.50;;
58808;SDS011;44579;51.672;7.834;2022-11-15T09:03:10;7.50;;;1.75;;
58808;SDS011;44579;51.672;7.834;2022-11-15T09:05:56;2.22;;;1.52;;
58808;SDS011;44579;51.672;7.834;2022-11-15T09:08:43;4.38;;;1.90;;
58808;SDS011;44579;51.672;7.834;2022-11-15T09:11:32;1.75;;;1.13;;
58808;SDS011;44579;51.672;7.834;2022-11-15T09:14:18;2.63;;;1.20;;
58808;SDS011;44579;51.672;7.834;2022-11-15T09:17:06;9.48;;;1.58;;
58808;SDS011;44579;51.672;7.834;2022-11-15T09:19:53;7.28;;;2.05;;
58808;SDS011;44579;51.672;7.834;2022-11-15T09:22:38;2.22;;;1.33;;
58808;SDS011;44579;51.672;7.834;2022-11-15T09:25:24;0.75;;;0.60;;
58808;SDS011;44579;51.672;7.834;2022-11-15T09:28:09;6.72;;;1.67;;
58808;SDS011;44579;51.672;7.834;2022-11-15T09:30:56;1.85;;;1.10;;
58808;SDS011;44579;51.672;7.834;2022-11-15T09:33:46;1.98;;;1.20;;
58808;SDS011;44579;51.672;7.834;2022-11-15T09:36:32;5.97;;;1.25;;
58808;SDS011;44579;51.672;7.834;2022-11-15T09:39:17;3.70;;;1.48;;
58808;SDS011;44579;51.672;7.834;2022-11-15T09:42:14;4.32;;;1.73;;
58808;SDS011;44579;51.672;7.834;2022-11-15T09:45:15;1.90;;;1.25;;
58808;SDS011;44579;51.672;7.834;2022-11-15T09:51:34;3.38;;;0.90;;
58808;SDS011;44579;51.672;7.834;2022-11-15T09:57:04;5.43;;;1.50;;
58808;SDS011;44579;51.672;7.834;2022-11-15T09:59:45;4.63;;;0.95;;
58808;SDS011;44579;51.672;7.834;2022-11-15T10:03:27;6.75;;;1.50;;
58808;SDS011;44579;51.672;7.834;2022-11-15T10:05:48;2.72;;;0.98;;
58808;SDS011;44579;51.672;7.834;2022-11-15T10:11:04;3.72;;;1.40;;
58808;SDS011;44579;51.672;7.834;2022-11-15T10:13:54;6.57;;;1.55;;
58808;SDS011;44579;51.672;7.834;2022-11-15T10:16:49;6.93;;;1.65;;
58808;SDS011;44579;51.672;7.834;2022-11-15T10:25:12;8.73;;;1.45;;
58808;SDS011;44579;51.672;7.834;2022-11-15T10:27:47;7.10;;;1.05;;
58808;SDS011;44579;51.672;7.834;2022-11-15T10:30:48;5.85;;;1.10;;
58808;SDS011;44579;51.672;7.834;2022-11-15T10:33:35;1.63;;;1.23;;
58808;SDS011;44579;51.672;7.834;2022-11-15T10:43:42;2.97;;;1.67;;
58808;SDS011;44579;51.672;7.834;2022-11-15T10:46:22;2.95;;;1.10;;
58808;SDS011;44579;51.672;7.834;2022-11-15T10:49:12;1.60;;;1.05;;
58808;SDS011;44579;51.672;7.834;2022-11-15T10:51:43;2.72;;;1.27;;
58808;SDS011;44579;51.672;7.834;2022-11-15T10:54:16;5.43;;;1.50;;
58808;SDS011;44579;51.672;7.834;2022-11-15T10:56:51;4.75;;;1.40;;
58808;SDS011;44579;51.672;7.834;2022-11-15T10:59:29;1.20;;;0.90;;
58808;SDS011;44579;51.672;7.834;2022-11-15T11:04:54;2.42;;;1.50;;
58808;SDS011;44579;51.672;7.834;2022-11-15T11:07:28;1.33;;;0.90;;
58808;SDS011;44579;51.672;7.834;2022-11-15T11:10:02;7.43;;;1.23;;
58808;SDS011;44579;51.672;7.834;2022-11-15T11:13:13;2.97;;;1.30;;
58808;SDS011;44579;51.672;7.834;2022-11-15T11:15:42;2.33;;;1.38;;
58808;SDS011;44579;51.672;7.834;2022-11-15T11:18:23;2.35;;;1.05;;
58808;SDS011;44579;51.672;7.834;2022-11-15T11:20:58;2.75;;;1.10;;
58808;SDS011;44579;51.672;7.834;2022-11-15T11:26:18;2.53;;;1.15;;
58808;SDS011;44579;51.672;7.834;2022-11-15T11:37:20;2.42;;;1.08;;
58808;SDS011;44579;51.672;7.834;2022-11-15T11:40:14;1.85;;;1.20;;
58808;SDS011;44579;51.672;7.834;2022-11-15T11:42:50;3.88;;;1.30;;
58808;SDS011;44579;51.672;7.834;2022-11-15T11:45:41;2.92;;;1.20;;
58808;SDS011;44579;51.672;7.834;2022-11-15T11:51:21;3.08;;;1.52;;
58808;SDS011;44579;51.672;7.834;2022-11-15T11:53:53;7.03;;;1.48;;
58808;SDS011;44579;51.672;7.834;2022-11-15T11:56:37;1.73;;;1.10;;
58808;SDS011;44579;51.672;7.834;2022-11-15T12:01:43;3.17;;;1.43;;
58808;SDS011;44579;51.672;7.834;2022-11-15T12:04:13;1.42;;;0.73;;
58808;SDS011;44579;51.672;7.834;2022-11-15T12:12:37;2.75;;;1.25;;
58808;SDS011;44579;51.672;7.834;2022-11-15T12:15:13;0.90;;;0.80;;
58808;SDS011;44579;51.672;7.834;2022-11-15T12:17:47;3.42;;;0.88;;
58808;SDS011;44579;51.672;7.834;2022-11-15T12:20:16;2.92;;;1.63;;
58808;SDS011;44579;51.672;7.834;2022-11-15T12:25:31;4.95;;;1.27;;
58808;SDS011;44579;51.672;7.834;2022-11-15T12:31:30;3.58;;;1.55;;
58808;SDS011;44579;51.672;7.834;2022-11-15T12:36:49;0.90;;;0.65;;
58808;SDS011;44579;51.672;7.834;2022-11-15T12:39:17;1.45;;;0.85;;
58808;SDS011;44579;51.672;7.834;2022-11-15T12:57:28;2.88;;;1.80;;
58808;SDS011;44579;51.672;7.834;2022-11-15T13:10:28;1.30;;;0.93;;
58808;SDS011;44579;51.672;7.834;2022-11-15T13:13:01;3.95;;;1.05;;
58808;SDS011;44579;51.672;7.834;2022-11-15T13:15:43;2.75;;;1.25;;
58808;SDS011;44579;51.672;7.834;2022-11-15T13:18:36;8.02;;;1.10;;
58808;SDS011;44579;51.672;7.834;2022-11-15T13:21:22;2.25;;;1.25;;
58808;SDS011;44579;51.672;7.834;2022-11-15T13:24:10;4.40;;;1.10;;
58808;SDS011;44579;51.672;7.834;2022-11-15T13:26:39;1.13;;;0.70;;
58808;SDS011;44579;51.672;7.834;2022-11-15T13:29:14;3.70;;;1.60;;
58808;SDS011;44579;51.672;7.834;2022-11-15T13:31:43;1.92;;;0.70;;
58808;SDS011;44579;51.672;7.834;2022-11-15T13:34:23;1.73;;;0.77;;
58808;SDS011;44579;51.672;7.834;2022-11-15T13:39:47;7.47;;;1.60;;
58808;SDS011;44579;51.672;7.834;2022-11-15T13:42:15;0.65;;;0.65;;
58808;SDS011;44579;51.672;7.834;2022-11-15T13:45:12;2.58;;;0.88;;
58808;SDS011;44579;51.672;7.834;2022-11-15T13:47:32;1.75;;;0.90;;
58808;SDS011;44579;51.672;7.834;2022-11-15T13:49:59;6.65;;;0.80;;
58808;SDS011;44579;51.672;7.834;2022-11-15T13:52:37;1.63;;;1.00;;
58808;SDS011;44579;51.672;7.834;2022-11-15T13:57:44;0.80;;;0.70;;
58808;SDS011;44579;51.672;7.834;2022-11-15T14:03:12;0.70;;;0.63;;
58808;SDS011;44579;51.672;7.834;2022-11-15T14:06:04;0.88;;;0.60;;
58808;SDS011;44579;51.672;7.834;2022-11-15T14:08:34;2.47;;;0.70;;
58808;SDS011;44579;51.672;7.834;2022-11-15T14:11:18;4.00;;;0.90;;
58808;SDS011;44579;51.672;7.834;2022-11-15T14:14:05;1.80;;;0.80;;
58808;SDS011;44579;51.672;7.834;2022-11-15T14:16:43;9.20;;;1.13;;
58808;SDS011;44579;51.672;7.834;2022-11-15T14:24:38;1.02;;;0.70;;
58808;SDS011;44579;51.672;7.834;2022-11-15T14:29:50;3.70;;;1.08;;
58808;SDS011;44579;51.672;7.834;2022-11-15T14:34:53;2.70;;;0.63;;
58808;SDS011;44579;51.672;7.834;2022-11-15T14:37:25;6.57;;;1.05;;
58808;SDS011;44579;51.672;7.834;2022-11-15T14:40:03;3.95;;;1.08;;
58808;SDS011;44579;51.672;7.834;2022-11-15T14:42:32;6.07;;;1.00;;
58808;SDS011;44579;51.672;7.834;2022-11-15T14:44:59;3.83;;;1.02;;
58808;SDS011;44579;51.672;7.834;2022-11-15T14:47:26;2.88;;;0.80;;
58808;SDS011;44579;51.672;7.834;2022-11-15T14:49:53;5.72;;;1.13;;
58808;SDS011;44579;51.672;7.834;2022-11-15T14:52:27;1.23;;;0.65;;
58808;SDS011;44579;51.672;7.834;2022-11-15T14:54:58;2.15;;;0.60;;
58808;SDS011;44579;51.672;7.834;2022-11-15T14:57:28;1.55;;;0.82;;
58808;SDS011;44579;51.672;7.834;2022-11-15T14:59:55;4.38;;;0.93;;
58808;SDS011;44579;51.672;7.834;2022-11-15T15:02:37;2.17;;;0.70;;
58808;SDS011;44579;51.672;7.834;2022-11-15T15:05:29;2.65;;;0.77;;
58808;SDS011;44579;51.672;7.834;2022-11-15T15:07:56;2.13;;;1.00;;
58808;SDS011;44579;51.672;7.834;2022-11-15T15:10:24;3.00;;;1.50;;
58808;SDS011;44579;51.672;7.834;2022-11-15T15:13:23;2.63;;;1.00;;
58808;SDS011;44579;51.672;7.834;2022-11-15T15:15:51;1.63;;;0.73;;
58808;SDS011;44579;51.672;7.834;2022-11-15T15:18:18;2.55;;;1.10;;
58808;SDS011;44579;51.672;7.834;2022-11-15T15:20:49;2.45;;;1.55;;
58808;SDS011;44579;51.672;7.834;2022-11-15T15:23:26;2.55;;;1.45;;
58808;SDS011;44579;51.672;7.834;2022-11-15T15:25:55;3.13;;;1.13;;
58808;SDS011;44579;51.672;7.834;2022-11-15T15:28:22;7.75;;;1.05;;
58808;SDS011;44579;51.672;7.834;2022-11-15T15:30:53;3.13;;;1.00;;
58808;SDS011;44579;51.672;7.834;2022-11-15T15:33:20;1.80;;;1.15;;
58808;SDS011;44579;51.672;7.834;2022-11-15T15:35:47;0.82;;;0.70;;
58808;SDS011;44579;51.672;7.834;2022-11-15T15:38:15;2.70;;;0.95;;
58808;SDS011;44579;51.672;7.834;2022-11-15T15:40:42;2.60;;;0.98;;
58808;SDS011;44579;51.672;7.834;2022-11-15T15:43:09;5.18;;;1.48;;
58808;SDS011;44579;51.672;7.834;2022-11-15T15:45:36;2.25;;;1.10;;
58808;SDS011;44579;51.672;7.834;2022-11-15T15:48:07;2.20;;;1.58;;
58808;SDS011;44579;51.672;7.834;2022-11-15T15:50:37;5.93;;;1.33;;
58808;SDS011;44579;51.672;7.834;2022-11-15T15:53:04;1.88;;;1.20;;
58808;SDS011;44579;51.672;7.834;2022-11-15T15:55:31;1.88;;;0.98;;
58808;SDS011;44579;51.672;7.834;2022-11-15T15:57:58;7.07;;;1.20;;
58808;SDS011;44579;51.672;7.834;2022-11-15T16:00:25;2.85;;;1.40;;
58808;SDS011;44579;51.672;7.834;2022-11-15T16:02:52;2.85;;;1.30;;
58808;SDS011;44579;51.672;7.834;2022-11-15T16:05:20;1.67;;;0.90;;
58808;SDS011;44579;51.672;7.834;2022-11-15T16:07:48;3.90;;;1.45;;
58808;SDS011;44579;51.672;7.834;2022-11-15T16:10:28;3.25;;;1.00;;
58808;SDS011;44579;51.672;7.834;2022-11-15T16:13:06;3.28;;;1.60;;
58808;SDS011;44579;51.672;7.834;2022-11-15T16:15:33;6.80;;;1.48;;
58808;SDS011;44579;51.672;7.834;2022-11-15T16:18:02;3.13;;;1.52;;
58808;SDS011;44579;51.672;7.834;2022-11-15T16:20:43;2.45;;;1.27;;
58808;SDS011;44579;51.672;7.834;2022-11-15T16:23:12;2.45;;;1.08;;
58808;SDS011;44579;51.672;7.834;2022-11-15T16:25:47;2.05;;;0.98;;
58808;SDS011;44579;51.672;7.834;2022-11-15T16:28:17;16.75;;;1.42;;
58808;SDS011;44579;51.672;7.834;2022-11-15T16:30:46;3.38;;;1.25;;
58808;SDS011;44579;51.672;7.834;2022-11-15T16:33:21;2.38;;;0.90;;
58808;SDS011;44579;51.672;7.834;2022-11-15T16:35:48;4.97;;;1.13;;
58808;SDS011;44579;51.672;7.834;2022-11-15T16:38:15;12.30;;;1.47;;
58808;SDS011;44579;51.672;7.834;2022-11-15T16:40:43;2.20;;;1.20;;
58808;SDS011;44579;51.672;7.834;2022-11-15T16:43:10;5.25;;;1.00;;
58808;SDS011;44579;51.672;7.834;2022-11-15T16:45:37;1.58;;;1.17;;
58808;SDS011;44579;51.672;7.834;2022-11-15T16:48:04;2.35;;;1.13;;
58808;SDS011;44579;51.672;7.834;2022-11-15T16:50:33;1.17;;;0.73;;
58808;SDS011;44579;51.672;7.834;2022-11-15T16:53:06;3.30;;;1.17;;
58808;SDS011;44579;51.672;7.834;2022-11-15T16:55:33;2.90;;;0.90;;
58808;SDS011;44579;51.672;7.834;2022-11-15T16:58:00;5.15;;;1.13;;
58808;SDS011;44579;51.672;7.834;2022-11-15T17:00:27;2.15;;;1.15;;
58808;SDS011;44579;51.672;7.834;2022-11-15T17:02:54;4.63;;;1.20;;
58808;SDS011;44579;51.672;7.834;2022-11-15T17:05:22;9.77;;;1.00;;
58808;SDS011;44579;51.672;7.834;2022-11-15T17:07:49;4.22;;;1.13;;
58808;SDS011;44579;51.672;7.834;2022-11-15T17:10:23;2.08;;;1.00;;
58808;SDS011;44579;51.672;7.834;2022-11-15T17:12:51;6.05;;;1.42;;
58808;SDS011;44579;51.672;7.834;2022-11-15T17:15:20;1.77;;;1.30;;
58808;SDS011;44579;51.672;7.834;2022-11-15T17:17:51;3.42;;;1.48;;
58808;SDS011;44579;51.672;7.834;2022-11-15T17:20:20;5.45;;;0.98;;
58808;SDS011;44579;51.672;7.834;2022-11-15T17:22:49;1.45;;;1.10;;
58808;SDS011;44579;51.672;7.834;2022-11-15T17:25:16;5.88;;;1.20;;
58808;SDS011;44579;51.672;7.834;2022-11-15T17:27:43;2.65;;;1.27;;
58808;SDS011;44579;51.672;7.834;2022-11-15T17:30:11;3.33;;;1.50;;
58808;SDS011;44579;51.672;7.834;2022-11-15T17:32:40;1.25;;;1.10;;
58808;SDS011;44579;51.672;7.834;2022-11-15T17:35:08;8.93;;;1.60;;
58808;SDS011;44579;51.672;7.834;2022-11-15T17:37:41;1.42;;;1.15;;
58808;SDS011;44579;51.672;7.834;2022-11-15T17:40:09;4.35;;;1.30;;
58808;SDS011;44579;51.672;7.834;2022-11-15T17:42:39;1.85;;;1.30;;
58808;SDS011;44579;51.672;7.834;2022-11-15T17:45:07;2.10;;;1.30;;
58808;SDS011;44579;51.672;7.834;2022-11-15T17:47:36;2.08;;;1.30;;
58808;SDS011;44579;51.672;7.834;2022-11-15T17:52:30;6.07;;;1.33;;
58808;SDS011;44579;51.672;7.834;2022-11-15T17:54:57;7.05;;;1.55;;
58808;SDS011;44579;51.672;7.834;2022-11-15T17:57:24;1.40;;;1.17;;
58808;SDS011;44579;51.672;7.834;2022-11-15T17:59:51;1.42;;;1.05;;
58808;SDS011;44579;51.672;7.834;2022-11-15T18:02:18;2.10;;;1.23;;
58808;SDS011;44579;51.672;7.834;2022-11-15T18:04:45;6.38;;;1.13;;
58808;SDS011;44579;51.672;7.834;2022-11-15T18:07:12;8.48;;;1.98;;
58808;SDS011;44579;51.672;7.834;2022-11-15T18:09:39;7.07;;;2.20;;
58808;SDS011;44579;51.672;7.834;2022-11-15T18:12:09;6.55;;;1.90;;
58808;SDS011;44579;51.672;7.834;2022-11-15T18:14:36;12.75;;;1.95;;
58808;SDS011;44579;51.672;7.834;2022-11-15T18:17:04;3.13;;;1.70;;
58808;SDS011;44579;51.672;7.834;2022-11-15T18:19:31;1.02;;;0.95;;
58808;SDS011;44579;51.672;7.834;2022-11-15T18:21:59;4.93;;;1.73;;
58808;SDS011;44579;51.672;7.834;2022-11-15T18:24:31;3.20;;;1.33;;
58808;SDS011;44579;51.672;7.834;2022-11-15T18:27:01;9.43;;;1.42;;
58808;SDS011;44579;51.672;7.834;2022-11-15T18:29:29;2.10;;;1.45;;
58808;SDS011;44579;51.672;7.834;2022-11-15T18:31:57;4.32;;;1.90;;